Historyczne dane pomiarowe

Dodano dane terminowe – wersja testowa.

Dane z okresu 1951-2019

Wersja bazy: 1.34 [2019-03-16, lista zmian], aktualizacja planowana na 2019-04-15

Dane meteo z obszaru Polski uzyskane na podstawie danych udostępnionych przez Instytut Meteorologii i Gospodarki Wodnej – Państwowy Instytut Badawczy.

 

Wybierz Datę:    

       

TemperaturaWilgotnośćWiatrCiśnienieOpadyŚniegCzas trwania zjawisk
 Stacja t tx tn tng RH VA  wxwx mslp ppp RRR   cm mm wxwxwxwxwxwxwx
1987-08-14 10.1 16.4 2.8 -0.5 83.8 10.3 5.1 0.5 0.0 0.0- 918.3 0.7 0.7 0.0- 0.0 4.1 5.2--- 10.0--
1987-08-13 9.7 13.4 5.1 1.6 77.3 9.2 5.5 1.3 0.0 0.0- 920.2 0.0 0.0 0.0- 0.0 3.0---- 15.0--
1987-08-12 9.9 15.2 5.5 3.2 75.8 9.1 4.8 0.9 0.0 0.0- 919.7 0.0 0.0 0.0- 0.0 5.3---- 6.0--
1987-08-11 10.9 14.8 8.1 6.4 78.9 10.1 6.6 1.5 0.0 0.0- 919.3 0.6 0.6 0.0- 0.0 4.5 1.0------
1987-08-10 13.0 16.8 9.7 9.5 78.0 11.6 6.1 1.4 0.0 0.0- 916.3 9.2 8.2 1.0- 0.0- 3.4----- 0.7
1987-08-09 13.7 19.8 5.1 0.0 66.1 10.1 4.0 0.8 0.0 0.0- 920.0 0.0 0.0 0.0- 0.0 6.7---- 7.0--
1987-08-08 10.9 16.9 5.0 2.7 71.0 8.9 3.5 1.3 0.0 0.0- 919.8 0.0 0.0 0.0- 0.0 9.4---- 15.0--
1987-08-07 7.6 12.4 0.9 -2.0 79.1 8.1 4.5 0.9 0.0 0.0- 917.7 0.0 0.0 0.0- 0.0 1.6 0.3--- 5.0 6.0-
1987-08-06 7.4 12.5 5.1 4.8 86.5 8.9 6.1 1.5 0.0 0.0- 914.3 4.7 4.7 0.0- 0.0 3.5 3.6--- 3.0--
1987-08-05 9.8 14.0 6.9 6.1 80.5 9.6 8.0 0.6 0.0 0.0- 914.7 2.5 1.0 1.5- 0.0 0.2 4.1------
1987-08-04 12.4 17.9 8.0 6.2 79.9 11.4 7.0 1.1 0.0 0.0- 914.7 9.8 9.8 0.0- 0.0 0.7 2.2--- 8.0--
1987-08-03 13.1 18.1 8.7 8.4 72.1 10.5 6.0 1.3 0.0 0.0- 915.0 0.0 0.0 0.0- 0.0 6.1 0.3--- 4.0--
1987-08-02 11.9 16.0 9.2 9.1 78.5 10.8 7.0 1.4 0.0 0.0- 913.1 0.2 0.0 0.2- 0.0 3.8 0.9------
1987-08-01 12.8 20.0 5.6 3.1 80.1 11.6 4.6 1.1 0.0 0.0- 914.3 3.2 1.4 1.8- 0.0 6.8 2.1------
1987-07-31 14.6 17.6 11.4 10.2 78.4 12.8 7.3 1.4 0.0 0.0- 915.4 9.7 8.5 1.2- 0.0 0.0 7.2------
1987-07-30 15.2 21.5 7.7 4.7 68.1 11.4 4.5 1.0 0.0 0.0- 917.3 0.0 0.0 0.0- 0.0 10.4---- 9.0--
1987-07-29 11.2 16.2 5.7 3.4 74.4 9.7 6.5 0.8 0.0 0.0- 918.5 0.0 0.0 0.0- 0.0 3.7---- 5.0--
1987-07-28 11.1 15.5 9.0 8.4 78.8 10.4 6.5 1.9 0.0 0.0- 914.1 0.8 0.8 0.0- 0.0 1.7 3.4--- 3.6--
1987-07-27 10.3 14.0 5.5 4.7 70.5 8.6 6.6 2.3 0.0 0.0- 915.2 0.0 0.0 0.0- 0.0 7.2 0.4--- 4.0--
1987-07-26 11.2 18.0 7.8 8.6 92.9 12.4 6.9 0.8 0.0 0.0- 914.1 21.0 19.7 1.3- 0.0 0.2 9.8-- 1.3---
1987-07-25 16.6 22.6 11.9 8.7 77.9 14.4 6.4 1.3 0.0 0.0- 915.8 0.3 0.0 0.3- 0.0 2.9 1.3--- 7.0--
1987-07-24 18.6 25.6 14.0 11.1 79.5 16.5 3.4 1.1 0.0 0.0- 919.1 2.8 2.8 0.0- 0.0 8.2 2.8--- 2.6- 1.5
1987-07-23 17.8 24.3 10.4 6.6 78.4 15.7 3.3 0.5 0.0 0.0- 921.6 5.6 0.0 5.6- 0.0 6.9---- 13.0--
1987-07-22 17.1 21.8 12.6 9.3 82.1 15.8 4.3 0.6 0.0 0.0- 919.8 0.0 0.0 0.0- 0.0 4.2---- 12.0--
1987-07-21 18.2 24.5 11.6 9.3 79.6 16.4 4.5 1.4 0.0 0.0- 916.3 0.0 0.0 0.0- 0.0 8.2---- 13.0--
1987-07-20 19.6 24.5 15.4 12.6 77.8 17.5 5.5 1.4 0.0 0.0- 915.3 0.0 0.0 0.0- 0.0 6.8 0.8--- 3.0--
1987-07-19 22.3 27.3 14.8 12.9 68.5 18.1 3.3 1.6 0.0 0.0- 915.1 2.4 0.0 2.4- 0.0 8.8 0.4--- 7.6--
1987-07-18 21.0 27.0 14.1 9.9 66.5 16.2 2.9 0.9 0.0 0.0- 912.0 0.0 0.0 0.0- 0.0 9.5---- 6.0- 1.5
1987-07-17 20.6 26.1 13.1 11.0 65.0 15.0 5.1 1.8 0.0 0.0- 911.9 0.1 0.1 0.0- 0.0 7.2 2.0------
1987-07-16 17.2 24.3 10.3 7.3 81.8 16.0 4.9 0.6 0.0 0.0- 918.6 3.3 3.3 0.0- 0.0 6.5 0.5--- 7.0- 4.0
1987-07-15 15.1 23.2 6.5 3.6 73.9 12.3 2.5 0.5 0.0 0.0- 922.3 0.0 0.0 0.0- 0.0 11.2---- 12.0--
1987-07-14 14.4 18.9 11.1 11.2 68.5 11.1 4.5 0.6 0.0 0.0- 923.7 0.0 0.0 0.0- 0.0 10.0---- 11.0--
1987-07-13 16.9 22.0 12.0 9.4 76.1 14.3 5.8 1.8 0.0 0.0- 920.4 0.0 0.0 0.0- 0.0 8.7 0.2--- 4.0--
1987-07-12 18.0 26.8 8.1 4.8 63.6 12.3 4.9 1.1 0.0 0.0- 919.2 7.1 0.0 7.1- 0.0 10.2 2.3--- 8.0- 3.1
1987-07-11 14.8 21.5 6.1 2.2 66.8 10.9 3.6 1.4 0.0 0.0- 922.5 0.0 0.0 0.0- 0.0 13.4---- 13.0--
1987-07-10 12.5 17.1 8.1 5.9 72.1 10.1 4.4 1.6 0.0 0.0- 922.2 0.0 0.0 0.0- 0.0 11.7---- 5.0--
1987-07-09 14.5 22.0 10.9 7.2 82.3 13.4 6.8 0.8 0.0 0.0- 917.5 12.5 9.4 3.1- 0.0 3.0 7.3--- 7.0--
1987-07-08 18.2 26.4 8.4 3.3 60.0 11.7 2.1 0.5 0.0 0.0- 919.2 0.0 0.0 0.0- 0.0 12.6---- 11.0--
1987-07-07 15.6 24.3 6.0 1.7 66.0 11.1 1.4 0.8 0.0 0.0- 923.9 0.0 0.0 0.0- 0.0 11.8---- 14.0--
1987-07-06 13.6 19.9 6.4 2.2 69.0 10.1 2.0 0.8 0.0 0.0- 926.9 0.0 0.0 0.0- 0.0 13.6--- 1.1 4.0--
1987-07-05 12.2 16.8 11.1 7.7 84.9 12.0 7.1 0.4 0.0 0.0- 924.4 0.8 0.4 0.4- 0.0 0.1 2.3--- 3.7--
1987-07-04 16.0 19.4 12.2 10.1 74.6 13.4 6.5 1.1 0.0 0.0- 923.2 0.2 0.0 0.2- 0.0 4.0---- 11.0--
1987-07-03 15.7 18.4 13.1 13.7 85.5 15.2 8.0 0.9 0.0 0.0- 925.0 0.0 0.0 0.0- 0.0 0.0-------
1987-07-02 17.9 23.5 13.9 9.8 88.5 18.1 5.3 1.0 0.0 0.0- 923.6 0.5 0.5 0.0- 0.0 3.0 2.4-- 3.0 7.0--
1987-07-01 21.1 27.2 13.6 9.2 74.5 18.1 1.9 0.6 0.0 0.0- 922.4 0.0 0.0 0.0- 0.0 10.7---- 12.0--
1987-06-30 20.2 26.5 12.2 9.0 76.5 17.6 3.5 0.6 0.0 0.0- 927.2 0.0 0.0 0.0- 0.0 9.8---- 12.0--
1987-06-29 18.1 22.4 13.1 10.5 77.9 15.9 4.5 0.5 0.0 0.0- 929.6 0.0 0.0 0.0- 0.0 8.2 0.9--- 3.2--
1987-06-28 16.2 22.0 9.6 6.0 76.4 13.5 5.5 0.9 0.0 0.0- 925.6 0.0 0.0 0.0- 0.0 8.7---- 5.0--
1987-06-27 16.4 22.2 13.0 10.5 81.4 15.0 6.8 0.9 0.0 0.0- 921.3 35.2 35.2 0.0- 0.0 3.5 4.0----- 4.0
1987-06-26 14.1 21.0 3.7 0.1 70.4 11.0 5.1 1.3 0.0 0.0- 921.0 0.2 0.0 0.2- 0.0 11.9---- 9.0--
1987-06-25 11.4 16.6 9.8 8.5 82.4 11.0 6.3 0.9 0.0 0.0- 919.1 0.5 0.5 0.0- 0.0- 2.5--- 5.0--
1987-06-24 13.7 18.9 8.7 6.4 72.9 11.1 6.4 1.1 0.0 0.0- 918.4 7.2 0.0 7.2- 0.0 8.4 3.2--- 1.8--
1987-06-23 12.7 17.3 10.3 10.5 86.8 12.7 7.3 0.8 0.0 0.0- 921.1 0.8 0.0 0.8- 0.0 1.8 0.5-- 5.1---
1987-06-22 11.9 15.6 9.2 7.3 93.3 13.0 7.5 0.6 0.0 0.0- 919.1 25.9 24.9 1.0- 0.0 0.0 5.4----- 4.4
1987-06-21 12.4 18.0 6.3 2.1 77.4 11.0 5.1 0.8 0.0 0.0- 915.0 4.6 3.8 0.8- 0.0 3.8 3.7--- 7.0- 1.4
1987-06-20 11.3 17.0 3.1 0.4 69.4 9.0 4.9 0.9 0.0 0.0- 912.6 0.0 0.0 0.0- 0.0 3.2---- 5.0--
1987-06-19 8.7 13.6 4.2 1.6 72.0 7.9 4.9 0.8 0.0 0.0- 913.2 0.1 0.1 0.0- 0.0 4.1 0.5------
1987-06-18 7.9 14.5 2.4 0.0 75.3 7.9 6.5 1.9 0.0 0.0- 913.2 1.0 0.2 0.8- 0.0 6.9 1.7--- 9.0--
1987-06-17 7.0 11.6 4.5 1.9 82.3 8.2 6.6 0.4 0.0 0.0- 915.9 0.5 0.5 0.0- 0.0 0.7 3.1--- 14.0--
1987-06-16 12.9 23.5 7.8 9.0 73.0 10.6 5.6 3.1 0.0 0.0- 907.7 2.1 2.1 0.0- 0.0 2.0 5.8--- 5.0--
451.2 ms

 

Źródłem pochodzenia danych jest Instytut Meteorologii i Gospodarki Wodnej – Państwowy Instytut Badawczy. Dane Instytutu Meteorologii i Gospodarki Wodnej – Państwowego Instytutu Badawczego zostały przetworzone.

Dane źródłowe można odnaleźć na stronie https://dane.imgw.pl